Time;durP1;ratioP1;P1;durP2;ratioP2;P2;SDS_P1;SDS_P2;PMS_P1;PMS_P2;Temp;Humidity;BMP_temperature;BMP_pressure;BME280_temperature;BME280_humidity;BME280_pressure;Samples;Min_cycle;Max_cycle;Signal;HPM_P1;HPM_P2
2023/06/20 00:00:28;;;;;;;42.05;8.95;;;;;;;;;;5036076;28;20068;-46
2023/06/20 00:02:55;;;;;;;42.50;9.02;;;;;;;;;;5025172;28;20059;-49
2023/06/20 00:05:22;;;;;;;40.70;8.65;;;;;;;;;;5027962;28;20505;-47
2023/06/20 00:07:49;;;;;;;41.65;8.45;;;;;;;;;;5034072;28;20091;-47
2023/06/20 00:10:16;;;;;;;44.03;9.25;;;;;;;;;;5050689;28;20021;-46
2023/06/20 00:12:43;;;;;;;42.10;8.45;;;;;;;;;;5042589;28;20078;-46
2023/06/20 00:15:11;;;;;;;50.45;9.35;;;;;;;;;;5041253;28;20083;-47
2023/06/20 00:17:38;;;;;;;38.88;9.23;;;;;;;;;;5036261;28;20037;-48
2023/06/20 00:20:09;;;;;;;51.42;9.68;;;;;;;;;;5050336;28;20435;-45
2023/06/20 00:22:36;;;;;;;41.08;9.70;;;;;;;;;;5048894;28;20026;-46
2023/06/20 00:25:04;;;;;;;43.25;9.80;;;;;;;;;;5048776;28;20052;-46
2023/06/20 00:27:31;;;;;;;48.90;9.23;;;;;;;;;;5048515;28;20534;-46
2023/06/20 00:29:58;;;;;;;47.20;9.27;;;;;;;;;;5048232;28;20051;-46
2023/06/20 00:32:25;;;;;;;50.35;9.48;;;;;;;;;;5037173;28;20029;-48
2023/06/20 00:34:52;;;;;;;56.97;10.13;;;;;;;;;;5042472;28;20040;-49
2023/06/20 00:37:20;;;;;;;56.78;9.32;;;;;;;;;;5047148;28;20029;-48
2023/06/20 00:39:47;;;;;;;54.33;10.95;;;;;;;;;;5031450;28;20063;-47
2023/06/20 00:42:18;;;;;;;63.33;10.10;;;;;;;;;;5036468;28;20033;-48
2023/06/20 00:44:45;;;;;;;59.42;9.90;;;;;;;;;;5021279;28;20517;-48
2023/06/20 00:47:12;;;;;;;53.08;10.68;;;;;;;;;;5052219;28;20478;-49
2023/06/20 00:49:40;;;;;;;53.42;10.90;;;;;;;;;;5045678;28;20035;-48
2023/06/20 00:52:07;;;;;;;49.45;8.15;;;;;;;;;;5052575;28;20139;-49
2023/06/20 00:54:35;;;;;;;58.92;9.98;;;;;;;;;;5047436;28;20044;-49
2023/06/20 00:57:02;;;;;;;60.50;10.27;;;;;;;;;;5046168;28;20036;-50
2023/06/20 00:59:29;;;;;;;56.13;9.63;;;;;;;;;;5048124;28;20045;-51
2023/06/20 01:01:56;;;;;;;58.55;9.77;;;;;;;;;;5052040;28;20032;-55
2023/06/20 01:04:24;;;;;;;54.28;9.43;;;;;;;;;;5033463;28;20029;-49
2023/06/20 01:07:00;;;;;;;49.40;9.70;;;;;;;;;;5052260;28;20177;-51
2023/06/20 01:09:44;;;;;;;49.28;8.60;;;;;;;;;;5039338;28;20092;-49
2023/06/20 01:12:20;;;;;;;40.28;8.65;;;;;;;;;;5037839;28;20120;-49
2023/06/20 01:14:52;;;;;;;39.90;9.13;;;;;;;;;;5040159;28;20028;-49
2023/06/20 01:17:19;;;;;;;42.47;8.98;;;;;;;;;;5041888;28;20029;-49
2023/06/20 01:20:01;;;;;;;50.35;9.18;;;;;;;;;;5048561;28;20052;-49
2023/06/20 01:22:46;;;;;;;31.88;7.90;;;;;;;;;;5034096;28;20487;-49
2023/06/20 01:25:20;;;;;;;50.30;8.63;;;;;;;;;;5032485;28;20061;-49
2023/06/20 01:27:54;;;;;;;48.25;8.48;;;;;;;;;;5031977;28;20029;-50
2023/06/20 01:30:23;;;;;;;43.55;7.95;;;;;;;;;;5044010;28;20565;-50
2023/06/20 01:32:51;;;;;;;36.33;7.85;;;;;;;;;;5033574;28;20030;-49
2023/06/20 01:35:22;;;;;;;46.20;7.75;;;;;;;;;;5045013;28;20356;-47
2023/06/20 01:37:52;;;;;;;38.10;7.53;;;;;;;;;;5052264;28;20490;-46
2023/06/20 01:40:20;;;;;;;32.15;7.03;;;;;;;;;;5038957;28;20387;-47
2023/06/20 01:42:49;;;;;;;45.85;8.20;;;;;;;;;;5052119;28;20541;-47
2023/06/20 01:45:16;;;;;;;33.92;7.15;;;;;;;;;;5051603;28;20090;-47
2023/06/20 01:47:44;;;;;;;38.08;7.43;;;;;;;;;;5041440;28;20052;-46
2023/06/20 01:50:11;;;;;;;36.13;8.23;;;;;;;;;;5049283;28;20028;-46
2023/06/20 01:52:39;;;;;;;28.67;6.28;;;;;;;;;;5051988;28;20525;-46
2023/06/20 01:55:07;;;;;;;30.33;7.40;;;;;;;;;;5051717;28;20032;-46
2023/06/20 01:57:35;;;;;;;31.05;6.78;;;;;;;;;;5051830;28;20842;-47
2023/06/20 02:00:07;;;;;;;32.53;7.53;;;;;;;;;;5045368;28;20081;-47
2023/06/20 02:02:34;;;;;;;27.63;6.30;;;;;;;;;;5047556;28;20080;-46
2023/06/20 02:05:03;;;;;;;37.15;7.20;;;;;;;;;;5041971;28;20354;-49
2023/06/20 02:07:32;;;;;;;31.17;6.82;;;;;;;;;;5039590;28;20037;-51
2023/06/20 02:10:00;;;;;;;30.70;6.07;;;;;;;;;;5030772;28;20048;-49
2023/06/20 02:12:28;;;;;;;30.55;6.43;;;;;;;;;;5031117;28;20110;-49
2023/06/20 02:14:55;;;;;;;31.90;6.45;;;;;;;;;;5029828;28;20037;-48
2023/06/20 02:17:24;;;;;;;29.33;6.10;;;;;;;;;;5031117;28;20034;-49
2023/06/20 02:19:51;;;;;;;27.35;6.35;;;;;;;;;;5031281;28;20360;-49
2023/06/20 02:22:19;;;;;;;28.23;5.65;;;;;;;;;;5038320;28;20028;-48
2023/06/20 02:24:48;;;;;;;21.65;5.38;;;;;;;;;;5049323;28;20060;-52
2023/06/20 02:27:16;;;;;;;21.50;5.38;;;;;;;;;;5049935;28;20021;-49
2023/06/20 02:29:44;;;;;;;27.55;5.82;;;;;;;;;;5040909;28;20120;-49
2023/06/20 02:32:15;;;;;;;23.85;5.60;;;;;;;;;;5034070;28;20037;-49
2023/06/20 02:34:45;;;;;;;27.17;6.07;;;;;;;;;;5038193;28;20033;-48
2023/06/20 02:37:12;;;;;;;23.17;5.05;;;;;;;;;;5049159;28;20036;-49
2023/06/20 02:39:40;;;;;;;26.80;5.82;;;;;;;;;;5024843;28;20026;-51
2023/06/20 02:42:07;;;;;;;24.23;6.10;;;;;;;;;;5029820;28;20083;-49
2023/06/20 02:44:34;;;;;;;24.45;5.60;;;;;;;;;;5043598;28;20021;-49
2023/06/20 02:47:04;;;;;;;28.58;5.40;;;;;;;;;;5050816;28;20122;-49
2023/06/20 02:49:34;;;;;;;26.92;5.75;;;;;;;;;;5043113;28;20064;-48
2023/06/20 02:52:01;;;;;;;19.85;4.93;;;;;;;;;;5033250;28;20064;-50
2023/06/20 02:54:48;;;;;;;23.70;5.28;;;;;;;;;;5043722;28;20032;-48
2023/06/20 02:57:16;;;;;;;17.23;5.03;;;;;;;;;;5030685;28;20036;-48
2023/06/20 02:59:45;;;;;;;21.45;5.28;;;;;;;;;;5030144;28;20053;-49
2023/06/20 03:02:14;;;;;;;21.10;5.53;;;;;;;;;;5036639;28;20037;-49
2023/06/20 03:04:42;;;;;;;24.50;5.38;;;;;;;;;;5035179;28;20429;-49
2023/06/20 03:07:09;;;;;;;24.52;5.65;;;;;;;;;;5038931;28;20033;-51
2023/06/20 03:09:37;;;;;;;26.27;4.85;;;;;;;;;;5048672;28;20025;-48
2023/06/20 03:12:05;;;;;;;16.92;4.78;;;;;;;;;;5042073;28;20028;-48
2023/06/20 03:14:33;;;;;;;23.83;4.75;;;;;;;;;;5040312;28;20044;-48
2023/06/20 03:17:00;;;;;;;24.02;5.57;;;;;;;;;;5039386;28;20056;-50
2023/06/20 03:19:27;;;;;;;21.50;4.82;;;;;;;;;;5041243;28;20021;-48
2023/06/20 03:21:55;;;;;;;21.40;5.40;;;;;;;;;;5040820;28;20033;-48
2023/06/20 03:24:22;;;;;;;23.05;4.85;;;;;;;;;;5041853;28;20136;-49
2023/06/20 03:26:49;;;;;;;27.23;5.00;;;;;;;;;;5039648;28;20034;-50
2023/06/20 03:29:17;;;;;;;21.33;4.72;;;;;;;;;;5039902;28;20088;-51
2023/06/20 03:31:44;;;;;;;16.35;4.35;;;;;;;;;;5041506;28;20466;-50
2023/06/20 03:34:11;;;;;;;17.95;4.53;;;;;;;;;;5040276;28;20017;-49
2023/06/20 03:36:38;;;;;;;21.90;4.78;;;;;;;;;;5044690;28;20024;-48
2023/06/20 03:39:05;;;;;;;20.40;4.82;;;;;;;;;;5052071;28;20025;-48
2023/06/20 03:41:32;;;;;;;21.73;4.70;;;;;;;;;;5046056;28;20021;-49
2023/06/20 03:44:00;;;;;;;17.38;4.18;;;;;;;;;;5043010;28;20028;-48
2023/06/20 03:46:27;;;;;;;15.40;4.40;;;;;;;;;;5042884;28;20061;-49
2023/06/20 03:48:54;;;;;;;17.00;4.78;;;;;;;;;;5025733;28;20132;-49
2023/06/20 03:51:22;;;;;;;15.25;4.60;;;;;;;;;;5044705;28;20020;-49
2023/06/20 03:53:49;;;;;;;14.95;4.40;;;;;;;;;;5043017;28;20139;-49
2023/06/20 03:56:16;;;;;;;18.80;4.85;;;;;;;;;;5025142;28;20025;-48
2023/06/20 03:58:44;;;;;;;13.75;4.00;;;;;;;;;;5044437;28;20056;-49
2023/06/20 04:01:11;;;;;;;14.32;4.00;;;;;;;;;;5039370;28;20365;-49
2023/06/20 04:03:38;;;;;;;13.32;4.25;;;;;;;;;;5026113;28;20072;-48
2023/06/20 04:06:06;;;;;;;19.95;4.53;;;;;;;;;;5033968;28;20125;-48
2023/06/20 04:08:34;;;;;;;14.30;3.63;;;;;;;;;;5037057;28;20033;-48
2023/06/20 04:11:01;;;;;;;16.58;4.00;;;;;;;;;;5029079;28;20021;-48
2023/06/20 04:13:29;;;;;;;15.40;3.60;;;;;;;;;;5021255;28;20045;-50
2023/06/20 04:15:56;;;;;;;13.65;3.90;;;;;;;;;;5027831;28;20113;-48
2023/06/20 04:18:23;;;;;;;14.80;3.88;;;;;;;;;;5019244;28;20395;-48
2023/06/20 04:20:50;;;;;;;15.18;3.60;;;;;;;;;;5019149;28;20034;-49
2023/06/20 04:23:17;;;;;;;13.23;3.78;;;;;;;;;;5019579;28;20025;-48
2023/06/20 04:25:44;;;;;;;12.52;3.78;;;;;;;;;;5016346;28;20504;-51
2023/06/20 04:28:11;;;;;;;11.60;3.88;;;;;;;;;;5015786;28;20034;-50
2023/06/20 04:30:38;;;;;;;15.30;3.40;;;;;;;;;;5013879;28;20032;-48
2023/06/20 04:33:05;;;;;;;12.75;4.07;;;;;;;;;;4998017;28;20026;-48
2023/06/20 04:35:32;;;;;;;10.93;3.78;;;;;;;;;;5016964;28;20026;-49
2023/06/20 04:38:01;;;;;;;14.60;4.05;;;;;;;;;;5030490;28;20447;-49
2023/06/20 04:40:28;;;;;;;14.50;4.10;;;;;;;;;;5026434;28;20041;-48
2023/06/20 04:42:55;;;;;;;12.32;3.50;;;;;;;;;;5022953;28;20100;-48
2023/06/20 04:45:23;;;;;;;11.27;3.38;;;;;;;;;;5014003;28;20042;-48
2023/06/20 04:47:50;;;;;;;10.82;3.58;;;;;;;;;;5012961;28;20033;-48
2023/06/20 04:50:17;;;;;;;11.07;3.78;;;;;;;;;;5020446;28;20037;-48
2023/06/20 04:52:45;;;;;;;9.30;3.35;;;;;;;;;;5004297;28;20099;-48
2023/06/20 04:55:12;;;;;;;10.30;3.08;;;;;;;;;;5021683;28;20025;-49
2023/06/20 04:57:39;;;;;;;12.60;3.75;;;;;;;;;;5022162;28;20040;-48
2023/06/20 05:00:15;;;;;;;13.82;3.78;;;;;;;;;;5023368;28;20064;-48
2023/06/20 05:02:42;;;;;;;12.10;3.03;;;;;;;;;;5023388;28;20030;-49
2023/06/20 05:05:12;;;;;;;10.10;3.67;;;;;;;;;;5021329;28;20052;-48
2023/06/20 05:07:42;;;;;;;10.48;3.22;;;;;;;;;;5022394;28;20129;-48
2023/06/20 05:10:09;;;;;;;8.50;2.90;;;;;;;;;;5023378;28;20104;-48
2023/06/20 05:12:36;;;;;;;12.13;3.25;;;;;;;;;;5022290;28;20026;-48
2023/06/20 05:15:04;;;;;;;10.18;3.25;;;;;;;;;;5021779;28;20044;-48
2023/06/20 05:17:31;;;;;;;8.07;3.10;;;;;;;;;;5021187;28;20407;-47
2023/06/20 05:20:05;;;;;;;9.25;2.72;;;;;;;;;;5021173;28;20109;-48
2023/06/20 05:22:33;;;;;;;9.50;2.83;;;;;;;;;;5022977;28;20037;-48
2023/06/20 05:25:01;;;;;;;9.98;3.17;;;;;;;;;;5021125;28;20030;-48
2023/06/20 05:27:28;;;;;;;8.13;2.70;;;;;;;;;;5022864;28;20025;-48
2023/06/20 05:29:55;;;;;;;7.22;2.92;;;;;;;;;;5022342;28;20026;-48
2023/06/20 05:32:22;;;;;;;11.57;3.60;;;;;;;;;;5020853;28;20057;-48
2023/06/20 05:34:49;;;;;;;10.30;3.15;;;;;;;;;;5022887;28;20021;-47
2023/06/20 05:37:16;;;;;;;8.60;3.08;;;;;;;;;;5022311;28;20029;-48
2023/06/20 05:39:43;;;;;;;6.63;2.75;;;;;;;;;;5020711;28;20022;-48
2023/06/20 05:42:10;;;;;;;11.50;3.08;;;;;;;;;;5022502;28;20017;-48
2023/06/20 05:44:37;;;;;;;11.43;3.47;;;;;;;;;;5022242;28;20030;-48
2023/06/20 05:47:05;;;;;;;6.57;2.80;;;;;;;;;;5020334;28;20112;-48
2023/06/20 05:49:32;;;;;;;7.10;2.90;;;;;;;;;;5022213;28;20487;-49
2023/06/20 05:51:59;;;;;;;8.20;2.90;;;;;;;;;;5022601;28;20053;-48
2023/06/20 05:54:26;;;;;;;9.75;3.20;;;;;;;;;;5020676;28;20026;-49
2023/06/20 05:56:55;;;;;;;7.85;2.55;;;;;;;;;;5020779;28;20048;-48
2023/06/20 05:59:22;;;;;;;7.18;2.90;;;;;;;;;;5019216;28;20112;-49
2023/06/20 06:01:49;;;;;;;6.05;2.47;;;;;;;;;;5022295;28;20022;-48
2023/06/20 06:04:16;;;;;;;5.25;2.90;;;;;;;;;;5031776;28;20101;-49
2023/06/20 06:06:44;;;;;;;13.55;3.13;;;;;;;;;;5031755;28;20041;-48
2023/06/20 06:09:11;;;;;;;8.38;2.97;;;;;;;;;;5032171;28;20534;-48
2023/06/20 06:11:38;;;;;;;6.43;2.88;;;;;;;;;;5032146;28;20025;-48
2023/06/20 06:14:05;;;;;;;11.00;3.20;;;;;;;;;;5032021;28;20017;-48
2023/06/20 06:16:33;;;;;;;5.50;2.40;;;;;;;;;;5031825;28;20082;-48
2023/06/20 06:19:00;;;;;;;6.55;2.50;;;;;;;;;;5031970;28;20025;-48
2023/06/20 06:21:27;;;;;;;6.25;2.80;;;;;;;;;;5031824;28;20041;-48
2023/06/20 06:23:54;;;;;;;5.18;2.58;;;;;;;;;;5031939;28;20105;-47
2023/06/20 06:26:22;;;;;;;7.82;2.80;;;;;;;;;;5031683;28;20025;-48
2023/06/20 06:28:49;;;;;;;5.85;2.63;;;;;;;;;;5031872;28;20021;-48
2023/06/20 06:31:16;;;;;;;6.10;2.50;;;;;;;;;;5031776;28;20140;-48
2023/06/20 06:33:43;;;;;;;5.82;2.60;;;;;;;;;;5031682;28;20032;-48
2023/06/20 06:36:11;;;;;;;4.88;2.42;;;;;;;;;;5031689;28;20388;-48
2023/06/20 06:38:38;;;;;;;5.15;2.35;;;;;;;;;;5031756;28;20029;-48
2023/06/20 06:41:06;;;;;;;4.88;2.17;;;;;;;;;;5031558;28;20514;-48
2023/06/20 06:43:33;;;;;;;6.32;2.78;;;;;;;;;;5031523;28;20033;-48
2023/06/20 06:46:00;;;;;;;4.50;2.13;;;;;;;;;;5031419;28;20391;-48
2023/06/20 06:48:27;;;;;;;7.40;2.67;;;;;;;;;;5031596;28;20029;-48
2023/06/20 06:50:54;;;;;;;5.85;2.55;;;;;;;;;;5031551;28;20034;-48
2023/06/20 06:53:21;;;;;;;6.63;2.47;;;;;;;;;;5031384;28;20032;-49
2023/06/20 06:55:48;;;;;;;6.28;2.42;;;;;;;;;;5031458;28;20034;-49
2023/06/20 06:58:15;;;;;;;4.95;2.30;;;;;;;;;;5031204;28;20510;-48
2023/06/20 07:00:43;;;;;;;8.65;2.63;;;;;;;;;;5013765;28;20506;-48
2023/06/20 07:03:10;;;;;;;4.10;2.03;;;;;;;;;;5031426;28;20026;-48
2023/06/20 07:05:38;;;;;;;4.43;2.17;;;;;;;;;;5031161;28;20041;-48
2023/06/20 07:08:05;;;;;;;5.25;2.25;;;;;;;;;;5031289;28;20026;-49
2023/06/20 07:10:32;;;;;;;4.97;2.30;;;;;;;;;;5033166;28;20372;-48
2023/06/20 07:13:00;;;;;;;4.80;2.22;;;;;;;;;;5035465;28;20026;-48
2023/06/20 07:15:27;;;;;;;5.03;2.65;;;;;;;;;;5035184;28;20529;-48
2023/06/20 07:17:54;;;;;;;3.78;2.28;;;;;;;;;;5035199;28;20075;-48
2023/06/20 07:20:21;;;;;;;5.65;2.30;;;;;;;;;;5035104;28;20495;-48
2023/06/20 07:22:48;;;;;;;4.07;2.50;;;;;;;;;;5017434;28;20064;-47
2023/06/20 07:25:18;;;;;;;5.82;2.30;;;;;;;;;;5035033;28;20073;-48
2023/06/20 07:27:45;;;;;;;4.32;2.25;;;;;;;;;;5035007;28;20479;-49
2023/06/20 07:30:12;;;;;;;4.47;2.33;;;;;;;;;;5034968;28;20041;-48
2023/06/20 07:32:39;;;;;;;3.50;2.30;;;;;;;;;;5035335;28;20415;-47
2023/06/20 07:35:06;;;;;;;4.60;2.50;;;;;;;;;;5034993;28;20067;-49
2023/06/20 07:37:33;;;;;;;4.05;2.30;;;;;;;;;;5034977;28;20472;-48
2023/06/20 07:40:00;;;;;;;5.28;2.47;;;;;;;;;;5034976;28;20498;-48
2023/06/20 07:42:28;;;;;;;7.13;2.78;;;;;;;;;;5034726;28;20399;-48
2023/06/20 07:44:55;;;;;;;3.78;2.30;;;;;;;;;;5034599;28;20602;-50
2023/06/20 07:47:22;;;;;;;3.85;2.15;;;;;;;;;;5034665;28;20033;-48
2023/06/20 07:49:49;;;;;;;3.58;2.10;;;;;;;;;;5034710;28;20030;-48
2023/06/20 07:52:16;;;;;;;6.13;2.58;;;;;;;;;;5034659;28;20044;-48
2023/06/20 07:54:43;;;;;;;3.53;2.08;;;;;;;;;;5034629;28;20104;-48
2023/06/20 07:57:10;;;;;;;3.90;2.15;;;;;;;;;;5034451;28;20492;-50
2023/06/20 07:59:37;;;;;;;3.28;1.98;;;;;;;;;;5034434;28;20049;-48
2023/06/20 08:02:04;;;;;;;3.25;2.00;;;;;;;;;;5034587;28;20033;-47
2023/06/20 08:04:31;;;;;;;4.28;2.30;;;;;;;;;;5034492;28;20040;-48
2023/06/20 08:06:58;;;;;;;2.60;1.88;;;;;;;;;;5034342;28;20492;-48
2023/06/20 08:09:25;;;;;;;4.85;2.22;;;;;;;;;;5034417;28;20104;-47
2023/06/20 08:11:52;;;;;;;4.30;2.28;;;;;;;;;;5034288;28;20041;-48
2023/06/20 08:14:19;;;;;;;4.57;2.35;;;;;;;;;;5034316;28;20018;-51
2023/06/20 08:16:46;;;;;;;4.35;2.35;;;;;;;;;;5034150;28;20029;-48
2023/06/20 08:19:13;;;;;;;3.55;2.03;;;;;;;;;;5034203;28;20021;-48
2023/06/20 08:21:40;;;;;;;4.47;2.00;;;;;;;;;;5033143;28;20026;-51
2023/06/20 08:24:07;;;;;;;3.58;1.85;;;;;;;;;;5034140;28;20021;-47
2023/06/20 08:26:34;;;;;;;3.78;1.95;;;;;;;;;;5033792;28;20025;-48
2023/06/20 08:29:01;;;;;;;4.68;2.30;;;;;;;;;;5034008;28;20021;-48
2023/06/20 08:31:40;;;;;;;2.40;1.80;;;;;;;;;;5033981;28;20014;-50
2023/06/20 08:34:07;;;;;;;5.10;2.03;;;;;;;;;;5017746;28;20033;-48
2023/06/20 08:36:34;;;;;;;4.75;2.22;;;;;;;;;;5033810;28;20036;-50
2023/06/20 08:39:02;;;;;;;5.70;2.13;;;;;;;;;;5033715;28;20032;-49
2023/06/20 08:41:29;;;;;;;3.03;1.70;;;;;;;;;;5033698;28;20032;-50
2023/06/20 08:43:56;;;;;;;4.13;2.25;;;;;;;;;;5033647;28;20030;-48
2023/06/20 08:46:27;;;;;;;3.80;1.88;;;;;;;;;;5033262;28;20499;-48
2023/06/20 08:48:54;;;;;;;3.50;2.10;;;;;;;;;;5033557;28;20104;-47
2023/06/20 08:51:24;;;;;;;3.28;2.13;;;;;;;;;;5033557;28;20025;-48
2023/06/20 08:53:52;;;;;;;3.75;1.85;;;;;;;;;;5033664;28;20053;-49
2023/06/20 08:56:20;;;;;;;3.33;1.83;;;;;;;;;;5033345;28;20052;-48
2023/06/20 08:58:48;;;;;;;3.15;2.05;;;;;;;;;;5033286;28;20041;-48
2023/06/20 09:01:15;;;;;;;3.55;2.05;;;;;;;;;;5033498;28;20029;-48
2023/06/20 09:03:42;;;;;;;2.65;2.00;;;;;;;;;;5033409;28;20033;-49
2023/06/20 09:06:09;;;;;;;2.45;1.70;;;;;;;;;;5033174;28;20033;-48
2023/06/20 09:08:37;;;;;;;5.00;2.08;;;;;;;;;;5033292;28;20067;-48
2023/06/20 09:11:08;;;;;;;3.63;1.90;;;;;;;;;;5033321;28;20026;-49
2023/06/20 09:13:35;;;;;;;2.78;1.80;;;;;;;;;;5033119;28;20364;-48
2023/06/20 09:16:12;;;;;;;3.08;1.60;;;;;;;;;;5033112;28;20134;-48
2023/06/20 09:18:40;;;;;;;4.18;1.83;;;;;;;;;;5033129;28;20101;-48
2023/06/20 09:21:08;;;;;;;2.90;1.70;;;;;;;;;;5032953;28;20025;-48
2023/06/20 09:23:35;;;;;;;2.55;1.77;;;;;;;;;;5015176;28;20033;-48
2023/06/20 09:26:22;;;;;;;3.13;1.85;;;;;;;;;;5032742;28;20041;-48
2023/06/20 09:28:49;;;;;;;3.15;1.80;;;;;;;;;;5032956;28;20407;-48
2023/06/20 09:31:16;;;;;;;3.13;1.67;;;;;;;;;;5032874;28;20025;-48
2023/06/20 09:33:43;;;;;;;2.95;1.70;;;;;;;;;;5032554;28;20052;-50
2023/06/20 09:36:17;;;;;;;3.25;1.70;;;;;;;;;;5032750;28;20079;-48
2023/06/20 09:38:44;;;;;;;2.45;1.60;;;;;;;;;;5032750;28;20026;-49
2023/06/20 09:41:17;;;;;;;2.13;1.50;;;;;;;;;;5032600;28;20021;-48
2023/06/20 09:43:45;;;;;;;2.53;1.63;;;;;;;;;;5032643;28;20087;-48
2023/06/20 09:46:16;;;;;;;3.33;1.70;;;;;;;;;;5032612;28;20053;-49
2023/06/20 09:48:43;;;;;;;2.00;1.50;;;;;;;;;;5032529;28;20152;-47
2023/06/20 09:51:10;;;;;;;4.35;1.77;;;;;;;;;;5032507;28;20025;-47
2023/06/20 09:53:37;;;;;;;3.95;1.75;;;;;;;;;;5032391;28;20076;-48
2023/06/20 09:56:05;;;;;;;2.40;1.50;;;;;;;;;;5032325;28;20037;-47
2023/06/20 09:58:32;;;;;;;1.95;1.50;;;;;;;;;;5032076;28;20049;-48
2023/06/20 10:01:00;;;;;;;2.88;1.67;;;;;;;;;;5032400;28;20112;-48
2023/06/20 10:03:28;;;;;;;2.95;1.77;;;;;;;;;;5032215;28;20026;-49
2023/06/20 10:05:55;;;;;;;3.38;1.67;;;;;;;;;;5032044;28;20060;-47
2023/06/20 10:08:23;;;;;;;2.47;1.40;;;;;;;;;;5032242;28;20403;-47
2023/06/20 10:10:50;;;;;;;1.95;1.50;;;;;;;;;;5032080;28;20395;-48
2023/06/20 10:13:17;;;;;;;1.50;1.40;;;;;;;;;;5032158;28;20099;-48
2023/06/20 10:15:44;;;;;;;2.80;1.42;;;;;;;;;;5031934;28;20061;-48
2023/06/20 10:18:35;;;;;;;3.53;1.63;;;;;;;;;;5031986;28;20021;-47
2023/06/20 10:21:05;;;;;;;2.55;1.48;;;;;;;;;;5031979;28;20392;-48
2023/06/20 10:23:33;;;;;;;3.15;1.65;;;;;;;;;;5031842;28;20446;-48
2023/06/20 10:26:03;;;;;;;3.03;1.42;;;;;;;;;;5031700;28;20030;-48
2023/06/20 10:28:30;;;;;;;2.38;1.63;;;;;;;;;;5031879;28;20032;-48
2023/06/20 10:31:00;;;;;;;2.90;1.50;;;;;;;;;;5031897;28;20029;-48
2023/06/20 10:33:27;;;;;;;2.35;1.55;;;;;;;;;;5031736;28;20083;-50
2023/06/20 10:36:04;;;;;;;2.92;1.42;;;;;;;;;;5031736;28;20112;-49
2023/06/20 10:38:33;;;;;;;1.95;1.40;;;;;;;;;;5031663;28;20033;-48
2023/06/20 10:41:26;;;;;;;2.67;1.40;;;;;;;;;;5031730;28;20033;-49
2023/06/20 10:43:57;;;;;;;2.83;1.60;;;;;;;;;;5027819;28;20033;-48
2023/06/20 10:46:43;;;;;;;2.60;1.35;;;;;;;;;;5031188;28;20060;-48
2023/06/20 10:49:11;;;;;;;2.53;1.50;;;;;;;;;;5031830;28;20092;-48
2023/06/20 10:51:47;;;;;;;3.35;1.60;;;;;;;;;;5031537;28;20369;-48
2023/06/20 10:54:14;;;;;;;2.58;1.20;;;;;;;;;;5031572;28;20048;-48
2023/06/20 10:56:46;;;;;;;3.17;1.50;;;;;;;;;;5031471;28;20033;-48
2023/06/20 10:59:14;;;;;;;2.90;1.27;;;;;;;;;;5031229;28;20053;-48
2023/06/20 11:01:41;;;;;;;2.38;1.38;;;;;;;;;;5031441;28;20040;-48
2023/06/20 11:04:09;;;;;;;3.47;1.30;;;;;;;;;;5031494;28;20144;-48
2023/06/20 11:06:36;;;;;;;2.60;1.20;;;;;;;;;;5031238;28;20076;-48
2023/06/20 11:09:03;;;;;;;2.42;1.20;;;;;;;;;;5031445;28;20061;-48
2023/06/20 11:11:40;;;;;;;2.20;1.52;;;;;;;;;;5031362;28;20025;-47
2023/06/20 11:14:11;;;;;;;2.38;1.20;;;;;;;;;;5031368;28;20026;-49
2023/06/20 11:16:39;;;;;;;3.08;1.35;;;;;;;;;;5031364;28;20076;-48
2023/06/20 11:19:06;;;;;;;2.20;1.20;;;;;;;;;;5031279;28;20466;-48
2023/06/20 11:21:34;;;;;;;2.15;1.17;;;;;;;;;;5031359;28;20100;-49
2023/06/20 11:24:02;;;;;;;2.80;1.42;;;;;;;;;;5031348;28;20033;-49
2023/06/20 11:26:33;;;;;;;3.22;1.42;;;;;;;;;;5031049;28;20456;-51
2023/06/20 11:29:06;;;;;;;2.63;1.38;;;;;;;;;;5031342;28;20033;-48
2023/06/20 11:31:33;;;;;;;2.58;1.35;;;;;;;;;;5031194;28;20063;-48
2023/06/20 11:34:06;;;;;;;1.50;1.00;;;;;;;;;;5031104;28;20021;-50
2023/06/20 11:36:34;;;;;;;1.88;1.30;;;;;;;;;;5031210;28;20034;-49
2023/06/20 11:39:06;;;;;;;2.15;1.50;;;;;;;;;;5031137;28;20025;-48
2023/06/20 11:41:33;;;;;;;1.87;1.20;;;;;;;;;;5013497;28;20144;-48
2023/06/20 11:44:00;;;;;;;3.55;1.38;;;;;;;;;;5030983;28;20383;-49
2023/06/20 11:46:27;;;;;;;1.83;1.27;;;;;;;;;;5030894;28;20499;-48
2023/06/20 11:48:58;;;;;;;2.17;1.00;;;;;;;;;;5031027;28;20391;-48
2023/06/20 11:51:26;;;;;;;1.63;1.10;;;;;;;;;;5031067;28;20037;-48
2023/06/20 11:54:12;;;;;;;1.92;1.15;;;;;;;;;;5030974;28;20109;-47
2023/06/20 11:56:42;;;;;;;2.10;1.20;;;;;;;;;;5032710;28;20092;-48
2023/06/20 11:59:10;;;;;;;1.95;1.05;;;;;;;;;;5034499;28;20044;-48
2023/06/20 12:01:37;;;;;;;1.95;1.08;;;;;;;;;;5034426;28;20448;-48
2023/06/20 12:04:05;;;;;;;1.55;1.02;;;;;;;;;;5016613;28;20403;-48
2023/06/20 12:06:32;;;;;;;2.30;1.10;;;;;;;;;;5034132;28;20080;-48
2023/06/20 12:08:59;;;;;;;2.33;1.30;;;;;;;;;;5034371;28;20029;-49
2023/06/20 12:11:30;;;;;;;1.55;1.08;;;;;;;;;;5034432;28;20566;-48
2023/06/20 12:13:57;;;;;;;1.60;1.30;;;;;;;;;;5034354;28;20029;-48
2023/06/20 12:16:25;;;;;;;3.72;1.10;;;;;;;;;;5034056;28;20029;-49
2023/06/20 12:18:52;;;;;;;1.20;1.10;;;;;;;;;;5034323;28;20032;-48
2023/06/20 12:21:19;;;;;;;4.75;1.27;;;;;;;;;;5034090;28;20104;-48
2023/06/20 12:23:46;;;;;;;1.88;1.20;;;;;;;;;;5034165;28;20021;-48
2023/06/20 12:26:14;;;;;;;1.65;1.10;;;;;;;;;;5033955;28;20040;-50
2023/06/20 12:28:41;;;;;;;1.88;1.02;;;;;;;;;;5034062;28;20025;-48
2023/06/20 12:31:08;;;;;;;1.40;1.00;;;;;;;;;;5034030;28;20105;-49
2023/06/20 12:33:35;;;;;;;1.20;0.90;;;;;;;;;;5034002;28;20025;-48
2023/06/20 12:36:02;;;;;;;1.77;1.10;;;;;;;;;;5033872;28;20503;-48
2023/06/20 12:38:30;;;;;;;1.58;0.90;;;;;;;;;;5033949;28;20664;-48
2023/06/20 12:41:03;;;;;;;1.63;1.15;;;;;;;;;;5024988;28;20083;-49
2023/06/20 12:43:30;;;;;;;1.42;0.90;;;;;;;;;;5033635;28;20037;-48
2023/06/20 12:46:00;;;;;;;2.00;1.05;;;;;;;;;;5033552;28;20034;-48
2023/06/20 12:48:27;;;;;;;1.92;1.10;;;;;;;;;;5033705;28;20029;-48
2023/06/20 12:50:54;;;;;;;3.53;1.20;;;;;;;;;;5033654;28;20025;-48
2023/06/20 12:53:21;;;;;;;1.70;1.02;;;;;;;;;;5033418;28;20040;-48
2023/06/20 12:55:48;;;;;;;2.70;1.30;;;;;;;;;;5037617;28;20036;-48
2023/06/20 12:58:15;;;;;;;2.15;1.10;;;;;;;;;;5033180;28;20049;-48
2023/06/20 13:00:42;;;;;;;2.47;1.10;;;;;;;;;;5021986;28;20082;-48
2023/06/20 13:03:10;;;;;;;2.95;1.20;;;;;;;;;;5026661;28;20028;-48
2023/06/20 13:05:37;;;;;;;2.38;1.10;;;;;;;;;;5004852;28;20046;-48
2023/06/20 13:08:05;;;;;;;3.45;1.33;;;;;;;;;;5032693;28;20032;-48
2023/06/20 13:10:32;;;;;;;2.42;1.40;;;;;;;;;;5033033;28;20032;-47
2023/06/20 13:12:59;;;;;;;4.75;1.60;;;;;;;;;;5032916;28;20041;-48
2023/06/20 13:15:29;;;;;;;5.65;1.52;;;;;;;;;;5035114;28;20060;-48
2023/06/20 13:17:58;;;;;;;4.68;1.55;;;;;;;;;;5042076;28;20091;-48
2023/06/20 13:20:25;;;;;;;2.92;1.30;;;;;;;;;;5041119;28;20471;-48
2023/06/20 13:22:52;;;;;;;6.30;1.40;;;;;;;;;;5042771;28;20058;-48
2023/06/20 13:25:19;;;;;;;4.88;1.30;;;;;;;;;;5042837;28;20091;-48
2023/06/20 13:27:48;;;;;;;5.32;1.73;;;;;;;;;;5041158;28;20108;-49
2023/06/20 13:30:15;;;;;;;3.80;1.40;;;;;;;;;;5041877;28;20082;-48
2023/06/20 13:32:45;;;;;;;7.57;1.73;;;;;;;;;;5043041;28;20036;-50
2023/06/20 13:35:13;;;;;;;8.38;1.92;;;;;;;;;;5033085;28;20051;-47
2023/06/20 13:37:40;;;;;;;6.00;1.50;;;;;;;;;;5041302;28;20021;-51
2023/06/20 13:40:09;;;;;;;6.50;1.40;;;;;;;;;;5042775;28;20073;-51
2023/06/20 13:42:41;;;;;;;4.93;1.90;;;;;;;;;;5044914;28;20025;-50
2023/06/20 13:45:08;;;;;;;;;;;;;;;;;;5037013;28;20030;-48
2023/06/20 13:47:35;;;;;;;5.05;1.67;;;;;;;;;;5015261;28;19924;-49
2023/06/20 13:50:02;;;;;;;4.18;1.50;;;;;;;;;;5017926;28;20036;-48
2023/06/20 13:52:29;;;;;;;5.65;1.65;;;;;;;;;;5031509;28;20033;-48
2023/06/20 13:54:56;;;;;;;5.25;1.75;;;;;;;;;;5031825;28;20033;-48
2023/06/20 13:57:23;;;;;;;4.38;2.03;;;;;;;;;;5031977;28;20047;-47
2023/06/20 13:59:50;;;;;;;7.05;1.60;;;;;;;;;;5031852;28;20418;-48
2023/06/20 14:02:17;;;;;;;7.50;1.98;;;;;;;;;;5014545;28;20137;-48
2023/06/20 14:04:44;;;;;;;6.57;2.00;;;;;;;;;;5031836;28;20108;-48
2023/06/20 14:07:11;;;;;;;4.88;1.90;;;;;;;;;;5025121;28;20507;-48
2023/06/20 14:09:38;;;;;;;3.83;1.60;;;;;;;;;;5012011;28;20034;-48
2023/06/20 14:12:07;;;;;;;7.10;1.90;;;;;;;;;;5012128;28;20133;-48
2023/06/20 14:14:34;;;;;;;5.93;1.95;;;;;;;;;;5030917;28;20479;-48
2023/06/20 14:17:01;;;;;;;9.27;1.83;;;;;;;;;;5022442;28;20026;-48
2023/06/20 14:19:32;;;;;;;7.18;2.03;;;;;;;;;;5015724;28;20056;-48
2023/06/20 14:21:59;;;;;;;12.32;2.10;;;;;;;;;;5031700;28;20025;-48
2023/06/20 14:24:26;;;;;;;13.15;2.10;;;;;;;;;;5031320;28;20104;-48
2023/06/20 14:26:55;;;;;;;11.77;2.38;;;;;;;;;;5031581;28;20071;-48
2023/06/20 14:29:22;;;;;;;19.98;2.58;;;;;;;;;;5022096;28;20109;-48
2023/06/20 14:31:49;;;;;;;16.98;2.45;;;;;;;;;;5011808;28;20428;-48
2023/06/20 14:34:16;;;;;;;13.40;2.60;;;;;;;;;;5027239;28;20037;-48
2023/06/20 14:36:43;;;;;;;16.33;2.47;;;;;;;;;;5031154;28;20065;-48
2023/06/20 14:39:10;;;;;;;22.42;2.72;;;;;;;;;;5018728;28;20073;-48
2023/06/20 14:41:37;;;;;;;15.93;2.63;;;;;;;;;;5020309;28;20030;-49
2023/06/20 14:44:04;;;;;;;13.95;2.70;;;;;;;;;;5020214;28;20419;-48